Accueil
METAR-TAF:

METAR-TAF

Aéroports :

Aéroport de Graz

Graz, Autriche

latitude: 47-00N, longitude: 015-26E, altitude: 340 m

Observation

Le bulletin a été fait il y a 33 minutes, à 15:20 UTC
Vent 7 kt de sud-est
Température 21°C
Humidité 53%
Pression 1014 hPa
Visibilité 10 km ou plus

METAR: LOWG 141520Z AUTO 14007KT 9999 NCD 21/11 Q1014 NOSIG

Heure: 17:53 (15:53 UTC)

Prévision

Le bulletin a été fait il y a 4 heures et 38 minutes, à 11:15 UTC
Prévision valable du 14 à 12 UTC au 15 à 12 UTC
Vent 2 kt de direction variable
Visibilité 10 km ou plus
pas de nuages en-dessous de 1500 mètres et pas de cumulonimbus.
Temporairement
du 14 à 12 UTC au 14 à 16 UTC
Vent 7 kt de sud-est

TAF: LOWG 141115Z 1412/1512 VRB02KT CAVOK TX23/1512Z TN10/1503Z TEMPO 1412/1416 14007KT

Observations et prévisions météorologiques de plus de 4000 aéroports (messages METAR et TAF).

Les stations disponibles sont représentées par des disques jaunes et rouges sur la carte.

Passer la souris dessus pour voir le nom de la station.

Cliquer dessus pour voir les observations et prévisions météorologiques.

Pour changer de carte: cliquez sur les boutons verts avec une croix noire pour zoomer, sur le bouton vert avec un tiret pour effectuer un zoom arrière, ou sur les flèches vertes pour les cartes adjacentes.


METAR-TAF: